Terminal Aerodrome Forecast
Issued by NWS

Home | Current Version | Previous Version | Text Only | Print | Product List | Glossary On
Versions: 1 2 3 4 5 6 7 8 9 10 11 12 13 14
416
FTAK31 PAJN 250403 AAB
TAFAJN
TAF AMD
PAJN 250403Z 2504/2524 VRB03KT P6SM -SHRA BKN035 OVC050
     FM250600 00000KT 4SM -SN OVC035
     FM250900 00000KT 2SM -SN OVC030
     FM251900 12008KT 5SM -SHRASN OVC030=

USA.gov is the U.S. government's official web portal to all federal, state and local government web resources and services.